createdAt,value
2023-02-21T07:16:32.973Z,694.00
2023-02-21T07:17:32.992Z,695.00
2023-02-21T07:18:32.901Z,696.00
2023-02-21T07:19:32.880Z,695.00
2023-02-21T07:20:32.871Z,693.00
2023-02-21T07:21:32.850Z,692.00
2023-02-21T07:22:32.839Z,694.00
2023-02-21T07:23:32.832Z,695.00
2023-02-21T07:24:33.248Z,694.00
2023-02-21T07:25:32.815Z,691.00
2023-02-21T07:26:32.797Z,690.00
2023-02-21T07:27:32.788Z,691.00
2023-02-21T07:28:32.771Z,693.00
2023-02-21T07:29:32.770Z,692.00
2023-02-21T07:30:32.827Z,692.00
2023-02-21T07:31:32.913Z,691.00
2023-02-21T07:32:32.766Z,693.00
2023-02-21T07:33:32.723Z,696.00
2023-02-21T07:34:32.712Z,698.00
2023-02-21T07:35:34.278Z,699.00
2023-02-21T07:36:32.618Z,701.00
2023-02-21T07:37:32.564Z,701.00
2023-02-21T07:38:32.521Z,701.00
2023-02-21T07:39:32.469Z,704.00
2023-02-21T07:40:32.428Z,705.00
2023-02-21T07:41:32.380Z,705.00
2023-02-21T07:42:32.326Z,706.00
2023-02-21T07:43:32.861Z,703.00
2023-02-21T07:44:32.285Z,702.00
2023-02-21T07:45:32.190Z,702.00
2023-02-21T07:46:32.175Z,703.00
2023-02-21T07:47:32.086Z,701.00
2023-02-21T07:48:32.041Z,700.00
2023-02-21T07:49:31.996Z,698.00
2023-02-21T07:50:31.943Z,698.00
2023-02-21T07:51:31.900Z,699.00
2023-02-21T07:52:31.866Z,699.00
2023-02-21T07:53:31.843Z,695.00
2023-02-21T07:54:31.838Z,697.00
2023-02-21T07:55:31.818Z,699.00
2023-02-21T07:56:31.804Z,699.00
2023-02-21T07:57:31.795Z,698.00
2023-02-21T07:58:31.775Z,697.00
2023-02-21T07:59:31.777Z,696.00
2023-02-21T08:00:31.754Z,692.00
2023-02-21T08:01:31.805Z,693.00
2023-02-21T08:02:31.800Z,695.00
2023-02-21T08:03:31.812Z,696.00
2023-02-21T08:04:31.921Z,693.00
2023-02-21T08:05:31.733Z,693.00
2023-02-21T08:06:31.686Z,692.00
2023-02-21T08:07:31.682Z,693.00
2023-02-21T08:08:31.676Z,691.00
2023-02-21T08:09:31.885Z,690.00
2023-02-21T08:10:31.665Z,690.00
2023-02-21T08:11:31.648Z,691.00
2023-02-21T08:12:31.646Z,691.00
2023-02-21T08:13:31.632Z,691.00
2023-02-21T08:14:32.381Z,688.00
2023-02-21T08:15:31.610Z,684.00
2023-02-21T08:16:34.453Z,681.00
2023-02-21T08:17:31.544Z,684.00
2023-02-21T08:18:31.514Z,685.00
2023-02-21T08:19:31.456Z,687.00
2023-02-21T08:20:31.436Z,835.00
2023-02-21T08:21:31.372Z,862.00
2023-02-21T08:22:31.332Z,942.00
2023-02-21T08:23:31.363Z,966.00
2023-02-21T08:24:31.228Z,1066.00
2023-02-21T08:25:31.175Z,1112.00
2023-02-21T08:26:31.155Z,1124.00
2023-02-21T08:27:31.090Z,1132.00
2023-02-21T08:28:31.026Z,1166.00
2023-02-21T08:29:30.983Z,1195.00
2023-02-21T08:30:30.967Z,1245.00
2023-02-21T08:31:30.882Z,1266.00
2023-02-21T08:32:30.857Z,1295.00
2023-02-21T08:33:31.718Z,1330.00
2023-02-21T08:34:30.723Z,1351.00
2023-02-21T08:35:30.678Z,1364.00
2023-02-21T08:36:30.622Z,1450.00
2023-02-21T08:37:30.569Z,1448.00
2023-02-21T08:38:30.515Z,1451.00
2023-02-21T08:39:30.540Z,1462.00
2023-02-21T08:40:31.304Z,1475.00
2023-02-21T08:41:30.381Z,1503.00
2023-02-21T08:42:30.346Z,1554.00
2023-02-21T08:43:30.294Z,1591.00
2023-02-21T08:44:30.213Z,1613.00
2023-02-21T08:45:30.163Z,1650.00
2023-02-21T08:46:30.198Z,1668.00
2023-02-21T08:47:30.063Z,1685.00
2023-02-21T08:48:30.018Z,1761.00
2023-02-21T08:49:29.977Z,1761.00
2023-02-21T08:50:29.921Z,1753.00
2023-02-21T08:51:29.858Z,1698.00
2023-02-21T08:52:29.798Z,1561.00
2023-02-21T08:53:29.749Z,1670.00
2023-02-21T08:54:29.694Z,1510.00
2023-02-21T08:55:29.647Z,1489.00
2023-02-21T08:56:29.630Z,1418.00
2023-02-21T08:57:29.551Z,1488.00
2023-02-21T08:58:29.502Z,1440.00
2023-02-21T08:59:29.502Z,1411.00
2023-02-21T09:00:29.413Z,1347.00
2023-02-21T09:01:29.479Z,1286.00
2023-02-21T09:02:29.310Z,1312.00
2023-02-21T09:03:29.246Z,1373.00
2023-02-21T09:04:29.264Z,1374.00
2023-02-21T09:05:29.147Z,1279.00
2023-02-21T09:06:30.367Z,1269.00
2023-02-21T09:07:29.050Z,1247.00
2023-02-21T09:08:28.985Z,1248.00
2023-02-21T09:09:28.934Z,1255.00
2023-02-21T09:10:28.965Z,1348.00
2023-02-21T09:11:28.857Z,1415.00
2023-02-21T09:12:28.793Z,1439.00
2023-02-21T09:13:28.755Z,1442.00
2023-02-21T09:14:28.746Z,1446.00
2023-02-21T09:15:29.471Z,1484.00
2023-02-21T09:16:28.785Z,1493.00
2023-02-21T09:17:28.726Z,1115.00
2023-02-21T09:18:28.809Z,1048.00
2023-02-21T09:19:28.694Z,1073.00
2023-02-21T09:20:28.725Z,934.00
2023-02-21T09:21:28.750Z,1042.00
2023-02-21T09:22:28.780Z,941.00
2023-02-21T09:23:28.776Z,912.00
2023-02-21T09:24:28.770Z,737.00
2023-02-21T09:25:28.761Z,684.00
2023-02-21T09:26:28.804Z,691.00
2023-02-21T09:27:28.838Z,712.00
2023-02-21T09:28:28.848Z,720.00
2023-02-21T09:29:37.042Z,756.00
2023-02-21T09:30:29.888Z,769.00
2023-02-21T09:31:28.857Z,779.00
2023-02-21T09:32:28.853Z,786.00
2023-02-21T09:33:28.737Z,842.00
2023-02-21T09:34:28.786Z,858.00
2023-02-21T09:35:28.664Z,930.00
2023-02-21T09:36:28.679Z,958.00
2023-02-21T09:37:28.611Z,1012.00
2023-02-21T09:38:28.560Z,1037.00
2023-02-21T09:39:28.522Z,1113.00
2023-02-21T09:40:28.482Z,1146.00
2023-02-21T09:41:28.428Z,1176.00
2023-02-21T09:42:28.388Z,1183.00
2023-02-21T09:43:28.346Z,1209.00
2023-02-21T09:44:28.298Z,1236.00
2023-02-21T09:45:28.281Z,1261.00
2023-02-21T09:46:28.203Z,1281.00
2023-02-21T09:47:28.221Z,1302.00
2023-02-21T09:48:28.318Z,1327.00
2023-02-21T09:49:28.253Z,1387.00
2023-02-21T09:50:28.255Z,1405.00
2023-02-21T09:51:28.259Z,1421.00
2023-02-21T09:52:28.906Z,1538.00
2023-02-21T09:53:28.258Z,1525.00
2023-02-21T09:54:28.239Z,1533.00
2023-02-21T09:55:30.502Z,1572.00
2023-02-21T09:56:28.266Z,1590.00
2023-02-21T09:57:28.220Z,1601.00
2023-02-21T09:58:28.194Z,1619.00
2023-02-21T09:59:28.213Z,1672.00
2023-02-21T10:00:28.415Z,1710.00
2023-02-21T10:01:28.170Z,1727.00
2023-02-21T10:02:29.056Z,1746.00
2023-02-21T10:03:28.000Z,1805.00
2023-02-21T10:04:27.958Z,1841.00
2023-02-21T10:05:27.951Z,1850.00
2023-02-21T10:06:27.866Z,1932.00
2023-02-21T10:07:27.800Z,1949.00
2023-02-21T10:08:27.740Z,1962.00
2023-02-21T10:09:27.706Z,1976.00
2023-02-21T10:10:27.639Z,1987.00
2023-02-21T10:11:27.582Z,2027.00
2023-02-21T10:12:27.533Z,2044.00
2023-02-21T10:13:27.479Z,2065.00
2023-02-21T10:14:27.417Z,2086.00
2023-02-21T10:15:27.359Z,2114.00
2023-02-21T10:16:27.321Z,2161.00
2023-02-21T10:17:27.231Z,2164.00
2023-02-21T10:18:27.172Z,2171.00
2023-02-21T10:19:27.140Z,2174.00
2023-02-21T10:20:27.048Z,2177.00
2023-02-21T10:21:27.043Z,2202.00
2023-02-21T10:22:26.957Z,2227.00
2023-02-21T10:23:26.861Z,2426.00
2023-02-21T10:24:26.802Z,2404.00
2023-02-21T10:25:26.733Z,2413.00
2023-02-21T10:26:26.706Z,2426.00
2023-02-21T10:27:27.338Z,2483.00
2023-02-21T10:28:26.538Z,2508.00
2023-02-21T10:29:26.472Z,2537.00
2023-02-21T10:30:26.577Z,2547.00
2023-02-21T10:31:26.414Z,2553.00
2023-02-21T10:32:26.331Z,2605.00
2023-02-21T10:33:26.317Z,2645.00
2023-02-21T10:34:26.307Z,2656.00
2023-02-21T10:35:26.424Z,2665.00
2023-02-21T10:36:26.302Z,2684.00
2023-02-21T10:37:26.444Z,2707.00
2023-02-21T10:38:26.378Z,2739.00
2023-02-21T10:39:26.325Z,2762.00
2023-02-21T10:40:26.320Z,2793.00
2023-02-21T10:41:26.304Z,2865.00
2023-02-21T10:42:26.352Z,2882.00
2023-02-21T10:43:26.299Z,2897.00
2023-02-21T10:44:26.298Z,2956.00
2023-02-21T10:45:26.294Z,2955.00
2023-02-21T10:46:26.286Z,2974.00
2023-02-21T10:47:26.322Z,2997.00
2023-02-21T10:48:26.244Z,3022.00
2023-02-21T10:49:26.228Z,3051.00
2023-02-21T10:50:26.212Z,3084.00
2023-02-21T10:51:26.197Z,3116.00
2023-02-21T10:52:26.184Z,3134.00
2023-02-21T10:53:26.168Z,3150.00
2023-02-21T10:54:26.137Z,3170.00
2023-02-21T10:55:33.052Z,3187.00
2023-02-21T10:56:27.049Z,3211.00
2023-02-21T10:57:25.980Z,3257.00
2023-02-21T10:58:25.899Z,3284.00
2023-02-21T10:59:25.835Z,3304.00
2023-02-21T11:00:25.762Z,3341.00
2023-02-21T11:01:25.883Z,3355.00
2023-02-21T11:02:25.698Z,3376.00
2023-02-21T11:03:25.552Z,3443.00
2023-02-21T11:04:25.487Z,3459.00
2023-02-21T11:05:25.419Z,3480.00
2023-02-21T11:06:27.894Z,3490.00
2023-02-21T11:07:25.497Z,3508.00
2023-02-21T11:08:25.439Z,3539.00
2023-02-21T11:09:25.378Z,3576.00
2023-02-21T11:10:25.324Z,3584.00
2023-02-21T11:11:25.277Z,3464.00
2023-02-21T11:12:25.340Z,3523.00
2023-02-21T11:13:25.216Z,3601.00
2023-02-21T11:14:25.149Z,3593.00
2023-02-21T11:15:25.086Z,3574.00
2023-02-21T11:16:25.132Z,3533.00
2023-02-21T11:17:25.009Z,3491.00
2023-02-21T11:18:25.091Z,3493.00
2023-02-21T11:19:24.949Z,3497.00
2023-02-21T11:20:24.907Z,3506.00
2023-02-21T11:21:24.875Z,3507.00
2023-02-21T11:22:24.850Z,3503.00
2023-02-21T11:23:24.817Z,3498.00
2023-02-21T11:24:24.863Z,3493.00
2023-02-21T11:25:25.443Z,3490.00
2023-02-21T11:26:24.765Z,3482.00
2023-02-21T11:27:24.730Z,3474.00
2023-02-21T11:28:25.432Z,3476.00
2023-02-21T11:29:24.691Z,3466.00
2023-02-21T11:30:24.709Z,3463.00
2023-02-21T11:31:24.814Z,3462.00
2023-02-21T11:32:25.442Z,3457.00
2023-02-21T11:33:24.607Z,3448.00
2023-02-21T11:34:24.564Z,3436.00
2023-02-21T11:35:24.564Z,3434.00
2023-02-21T11:36:24.538Z,3432.00
2023-02-21T11:37:24.503Z,3434.00
2023-02-21T11:38:24.486Z,3437.00
2023-02-21T11:39:24.452Z,3444.00
2023-02-21T11:40:24.418Z,3433.00
2023-02-21T11:41:24.399Z,3423.00
2023-02-21T11:42:24.362Z,3416.00
2023-02-21T11:43:24.329Z,3417.00
2023-02-21T11:44:24.297Z,3419.00
2023-02-21T11:45:24.262Z,3417.00
2023-02-21T11:46:24.388Z,3414.00
2023-02-21T11:47:24.200Z,3414.00
2023-02-21T11:48:24.162Z,3407.00
2023-02-21T11:49:24.118Z,3404.00
2023-02-21T11:50:24.086Z,3401.00
2023-02-21T11:51:24.033Z,3397.00
2023-02-21T11:52:23.996Z,3396.00
2023-02-21T11:53:23.974Z,3390.00
2023-02-21T11:54:23.919Z,3388.00
2023-02-21T11:55:26.264Z,3383.00
2023-02-21T11:56:24.015Z,3381.00
2023-02-21T11:57:23.962Z,3378.00
2023-02-21T11:58:23.917Z,3373.00
2023-02-21T11:59:23.859Z,3367.00
2023-02-21T12:00:23.836Z,3355.00
2023-02-21T12:01:23.752Z,3347.00
2023-02-21T12:02:23.800Z,3349.00
2023-02-21T12:03:23.684Z,3350.00
2023-02-21T12:04:23.604Z,3346.00
2023-02-21T12:05:23.547Z,3347.00
2023-02-21T12:06:23.511Z,3347.00
2023-02-21T12:07:23.439Z,3342.00
2023-02-21T12:08:23.399Z,3338.00
2023-02-21T12:09:23.325Z,3337.00
2023-02-21T12:10:23.261Z,3332.00
2023-02-21T12:11:23.200Z,3324.00
2023-02-21T12:12:23.134Z,3323.00
2023-02-21T12:13:23.077Z,3328.00
2023-02-21T12:14:23.023Z,3322.00
2023-02-21T12:15:22.940Z,3321.00
2023-02-21T12:16:22.880Z,3319.00
2023-02-21T12:17:22.814Z,3315.00
2023-02-21T12:18:22.746Z,3311.00
2023-02-21T12:19:22.668Z,3308.00
2023-02-21T12:20:22.679Z,3308.00
2023-02-21T12:21:22.535Z,3307.00
2023-02-21T12:22:22.459Z,3308.00
2023-02-21T12:23:22.404Z,3300.00
2023-02-21T12:24:22.317Z,3299.00
2023-02-21T12:25:22.255Z,3300.00
2023-02-21T12:26:22.181Z,3302.00
2023-02-21T12:27:22.136Z,3296.00
2023-02-21T12:28:22.046Z,3294.00
2023-02-21T12:29:21.970Z,3294.00
2023-02-21T12:30:21.918Z,3290.00
2023-02-21T12:31:21.953Z,3284.00
2023-02-21T12:32:21.836Z,3283.00
2023-02-21T12:33:21.741Z,3278.00
2023-02-21T12:44:21.971Z,3221.00
2023-02-21T14:22:16.188Z,2996.00
2023-02-21T14:23:16.100Z,2995.00
2023-02-21T14:24:16.029Z,2995.00
2023-02-21T14:25:15.957Z,2992.00
2023-02-21T14:26:16.185Z,2998.00
2023-02-21T14:27:15.813Z,2997.00
2023-02-21T14:28:15.762Z,2993.00
2023-02-21T14:29:15.678Z,2989.00
2023-02-21T14:30:15.605Z,2987.00
2023-02-21T14:31:15.870Z,2983.00
2023-02-21T14:32:15.574Z,2979.00
2023-02-21T14:33:17.141Z,2976.00
2023-02-21T14:34:15.436Z,2974.00
2023-02-21T14:35:15.351Z,2972.00
2023-02-21T14:36:15.284Z,2968.00
2023-02-21T14:37:15.221Z,2959.00
2023-02-21T14:38:15.167Z,2953.00
2023-02-21T14:39:15.111Z,2947.00
2023-02-21T14:40:15.077Z,2947.00
2023-02-21T14:41:15.318Z,2940.00
2023-02-21T14:42:14.958Z,2939.00
2023-02-21T14:43:14.931Z,2933.00
2023-02-21T14:44:14.876Z,2912.00
2023-02-21T14:45:14.831Z,2899.00
2023-02-21T14:46:14.807Z,2903.00
2023-02-21T14:47:15.517Z,2903.00
2023-02-21T14:48:14.745Z,2901.00
2023-02-21T14:49:17.113Z,2899.00
2023-02-21T14:50:14.898Z,2900.00
2023-02-21T14:51:15.210Z,2904.00
2023-02-21T14:52:14.837Z,2905.00
2023-02-21T14:53:14.815Z,2903.00
2023-02-21T14:54:14.805Z,2900.00
2023-02-21T14:55:14.787Z,2896.00
2023-02-21T14:56:14.776Z,2894.00
2023-02-21T14:57:14.756Z,2899.00
2023-02-21T14:58:14.765Z,2892.00
2023-02-21T14:59:14.844Z,2889.00
2023-02-21T15:00:14.768Z,2884.00
2023-02-21T15:01:15.279Z,2882.00
2023-02-21T15:02:14.768Z,2885.00
2023-02-21T15:03:14.751Z,2885.00
2023-02-21T15:04:14.760Z,2885.00
2023-02-21T15:05:14.688Z,2886.00
2023-02-21T15:06:14.662Z,2881.00
2023-02-21T15:07:14.649Z,2876.00
2023-02-21T15:08:15.026Z,2876.00
2023-02-21T15:09:15.525Z,2875.00
2023-02-21T15:10:14.556Z,2874.00
2023-02-21T15:11:15.281Z,2868.00
2023-02-21T15:12:14.356Z,2868.00
2023-02-21T15:13:14.288Z,2865.00
2023-02-21T15:14:14.228Z,2865.00
2023-02-21T15:15:14.177Z,2862.00
2023-02-21T15:16:14.163Z,2858.00
2023-02-21T15:17:14.081Z,2855.00
2023-02-21T15:18:14.022Z,2859.00
2023-02-21T15:19:13.977Z,2858.00
2023-02-21T15:20:13.938Z,2853.00
2023-02-21T15:21:13.988Z,2852.00
2023-02-21T15:22:13.844Z,2851.00
2023-02-21T15:23:13.810Z,2843.00
2023-02-21T15:24:13.759Z,2844.00
2023-02-21T15:25:13.725Z,2841.00
2023-02-21T15:26:13.689Z,2833.00
2023-02-21T15:27:15.452Z,2829.00
2023-02-21T15:28:13.611Z,2828.00
2023-02-21T15:29:13.589Z,2826.00
2023-02-21T15:30:13.592Z,2820.00
2023-02-21T15:31:13.711Z,2822.00
2023-02-21T15:32:13.498Z,2829.00
2023-02-21T15:33:13.470Z,2834.00
2023-02-21T15:34:13.449Z,2833.00
2023-02-21T15:35:13.426Z,2829.00
2023-02-21T15:36:13.540Z,2827.00
2023-02-21T15:37:13.448Z,2818.00
2023-02-21T15:38:13.353Z,2817.00
2023-02-21T15:39:13.342Z,2815.00
2023-02-21T15:40:13.318Z,2812.00
2023-02-21T15:41:13.524Z,2811.00
2023-02-21T15:42:13.278Z,2807.00
2023-02-21T15:43:13.260Z,2805.00
2023-02-21T15:44:13.261Z,2807.00
2023-02-21T15:45:13.236Z,2804.00
2023-02-21T15:46:13.335Z,2806.00
2023-02-21T15:47:13.226Z,2805.00
2023-02-21T15:48:13.212Z,2803.00
2023-02-21T15:49:13.202Z,2793.00
2023-02-21T15:50:13.206Z,2797.00
2023-02-21T15:51:13.435Z,2794.00
2023-02-21T15:52:13.245Z,2792.00
2023-02-21T15:53:13.249Z,2787.00
2023-02-21T15:54:13.182Z,2792.00
2023-02-21T15:55:13.184Z,2790.00
2023-02-21T15:56:13.267Z,2787.00
2023-02-21T15:57:14.031Z,2784.00
2023-02-21T15:58:13.179Z,2784.00
2023-02-21T15:59:13.189Z,2779.00
2023-02-21T16:00:13.174Z,2774.00
2023-02-21T16:01:13.377Z,2779.00
2023-02-21T16:02:13.425Z,2780.00
2023-02-21T16:03:13.189Z,2778.00
2023-02-21T16:04:13.205Z,2776.00
2023-02-21T16:05:13.203Z,2772.00
2023-02-21T16:06:13.274Z,2768.00
2023-02-21T16:07:13.218Z,2769.00
2023-02-21T16:08:13.218Z,2760.00
2023-02-21T16:09:13.225Z,2760.00
2023-02-21T16:10:13.223Z,2765.00
2023-02-21T16:11:13.434Z,2762.00
2023-02-21T16:12:13.231Z,2760.00
2023-02-21T16:13:13.221Z,2755.00
2023-02-21T16:14:13.233Z,2750.00
2023-02-21T16:15:13.207Z,2746.00
2023-02-21T16:16:13.332Z,2742.00
2023-02-21T16:17:13.293Z,2743.00
2023-02-21T16:18:13.184Z,2744.00
2023-02-21T16:19:13.180Z,2734.00
2023-02-21T16:20:13.153Z,2733.00
2023-02-21T16:21:13.346Z,2730.00
2023-02-21T16:22:13.096Z,2729.00
2023-02-21T16:23:14.044Z,2729.00
2023-02-21T16:24:13.027Z,2729.00
2023-02-21T16:25:12.998Z,2729.00
2023-02-21T16:26:12.996Z,2728.00
2023-02-21T16:27:12.983Z,2730.00
2023-02-21T16:28:12.934Z,2730.00
2023-02-21T16:29:12.877Z,2735.00
2023-02-21T16:30:12.842Z,2730.00
2023-02-21T16:31:12.849Z,2719.00
2023-02-21T16:32:13.121Z,2710.00
2023-02-21T16:33:12.638Z,2700.00
2023-02-21T16:34:12.596Z,2695.00
2023-02-21T16:35:12.528Z,2695.00
2023-02-21T16:36:12.561Z,2697.00
2023-02-21T16:37:12.435Z,2701.00
2023-02-21T16:38:12.383Z,2704.00
2023-02-21T16:39:12.329Z,2699.00
2023-02-21T16:40:12.273Z,2697.00
2023-02-21T16:41:14.123Z,2692.00
2023-02-21T16:42:12.162Z,2686.00
2023-02-21T16:43:12.091Z,2681.00
2023-02-21T16:44:12.037Z,2680.00
2023-02-21T16:45:11.980Z,2678.00
2023-02-21T16:46:12.011Z,2674.00
2023-02-21T16:47:11.867Z,2652.00
2023-02-21T16:48:12.065Z,2625.00
2023-02-21T16:49:11.757Z,2606.00
2023-02-21T17:16:10.262Z,2474.00
2023-02-21T17:19:10.057Z,2463.00
2023-02-21T17:20:10.026Z,2481.00
2023-02-21T17:21:09.945Z,2496.00
2023-02-21T17:22:09.902Z,2491.00
2023-02-21T17:23:09.855Z,2494.00
2023-02-21T17:24:09.765Z,2494.00
2023-02-21T17:25:09.714Z,2483.00
2023-02-21T17:26:09.664Z,2475.00
2023-02-21T17:27:09.597Z,2470.00
2023-02-21T21:23:08.984Z,2107.00
2023-02-21T21:24:08.944Z,2113.00
2023-02-21T21:25:08.957Z,2104.00
2023-02-21T21:26:08.943Z,2088.00
2023-02-21T21:27:09.196Z,2078.00
2023-02-21T21:28:08.933Z,2082.00
2023-02-21T21:29:08.949Z,2081.00
2023-02-21T21:30:08.965Z,2082.00
2023-02-21T21:31:09.013Z,2077.00
2023-02-21T21:32:08.931Z,2073.00
2023-02-21T21:33:08.862Z,2066.00
2023-02-21T21:34:08.996Z,2068.00
2023-02-21T21:35:08.868Z,2066.00
2023-02-21T21:36:08.802Z,2057.00
2023-02-21T21:37:08.819Z,2063.00
2023-02-21T21:38:08.743Z,2077.00
2023-02-21T21:39:08.721Z,2094.00
2023-02-21T21:40:08.702Z,2092.00
2023-02-21T21:41:08.708Z,2064.00
2023-02-21T21:42:08.765Z,2064.00
2023-02-21T21:43:08.655Z,2065.00
2023-02-21T21:44:08.625Z,2080.00
2023-02-21T21:45:08.624Z,2096.00
2023-02-21T21:46:08.631Z,2075.00
2023-02-21T21:47:08.619Z,2070.00
2023-02-21T21:48:08.640Z,2074.00
2023-02-21T21:49:08.676Z,2070.00
2023-02-21T21:50:08.647Z,2069.00
2023-02-21T21:51:08.595Z,2071.00
2023-02-21T21:52:08.744Z,2088.00
2023-02-21T21:53:08.555Z,2092.00
2023-02-21T21:54:08.570Z,2082.00
2023-02-21T21:55:08.550Z,2078.00
2023-02-21T21:56:08.595Z,2080.00
2023-02-21T21:57:08.489Z,2087.00
2023-02-21T21:58:08.497Z,2087.00
2023-02-21T21:59:08.467Z,2081.00
2023-02-21T22:00:08.436Z,2077.00
2023-02-21T22:01:08.475Z,2061.00
2023-02-21T22:02:08.371Z,2051.00
2023-02-21T22:03:08.343Z,2038.00
2023-02-21T22:04:08.306Z,2048.00
2023-02-21T22:05:08.282Z,2059.00
2023-02-21T22:06:08.305Z,2051.00
2023-02-21T22:07:08.207Z,2063.00
2023-02-21T22:08:08.169Z,2058.00
2023-02-21T23:31:05.631Z,1963.00
2023-02-21T23:32:05.573Z,1963.00
2023-02-21T23:33:05.532Z,1965.00
2023-02-21T23:34:05.490Z,1964.00
2023-02-21T23:35:05.448Z,1961.00
2023-02-21T23:36:05.440Z,1954.00
2023-02-21T23:37:05.395Z,1952.00
2023-02-21T23:38:05.352Z,1946.00
2023-02-21T23:40:05.281Z,1944.00
2023-02-21T23:41:05.318Z,1946.00
2023-02-21T23:42:05.214Z,1946.00
2023-02-21T23:43:05.186Z,1946.00
2023-02-21T23:44:05.151Z,1946.00
2023-02-21T23:45:05.112Z,1942.00
2023-02-21T23:46:05.083Z,1941.00
2023-02-21T23:47:05.035Z,1939.00
2023-02-21T23:48:05.014Z,1941.00
2023-02-21T23:49:04.975Z,1941.00
2023-02-21T23:50:04.937Z,1938.00
2023-02-21T23:51:04.900Z,1939.00
2023-02-21T23:52:04.868Z,1934.00
2023-02-21T23:53:04.835Z,1928.00
2023-02-21T23:54:04.807Z,1930.00
2023-02-21T23:55:04.772Z,1929.00
2023-02-21T23:56:04.735Z,1931.00
2023-02-21T23:57:04.703Z,1930.00
2023-02-21T23:58:04.725Z,1930.00
2023-02-21T23:59:04.644Z,1930.00
